sensor_id;sensor_type;location;lat;lon;timestamp;P1;durP1;ratioP1;P2;durP2;ratioP2
66702;SDS011;60933;46.398;-63.798;2022-07-23T00:02:22;5.55;;;4.90;;
66702;SDS011;60933;46.398;-63.798;2022-07-23T00:04:48;5.30;;;4.13;;
66702;SDS011;60933;46.398;-63.798;2022-07-23T00:07:14;5.43;;;4.18;;
66702;SDS011;60933;46.398;-63.798;2022-07-23T00:09:40;4.63;;;4.03;;
66702;SDS011;60933;46.398;-63.798;2022-07-23T00:12:06;5.07;;;3.85;;
66702;SDS011;60933;46.398;-63.798;2022-07-23T00:14:32;5.68;;;4.70;;
66702;SDS011;60933;46.398;-63.798;2022-07-23T00:16:58;6.18;;;5.35;;
66702;SDS011;60933;46.398;-63.798;2022-07-23T00:19:24;5.13;;;4.30;;
66702;SDS011;60933;46.398;-63.798;2022-07-23T00:21:51;4.70;;;3.50;;
66702;SDS011;60933;46.398;-63.798;2022-07-23T00:24:17;5.53;;;3.85;;
66702;SDS011;60933;46.398;-63.798;2022-07-23T00:26:43;5.18;;;3.72;;
66702;SDS011;60933;46.398;-63.798;2022-07-23T00:29:09;4.57;;;3.40;;
66702;SDS011;60933;46.398;-63.798;2022-07-23T00:31:35;5.30;;;3.63;;
66702;SDS011;60933;46.398;-63.798;2022-07-23T00:34:01;3.95;;;3.17;;
66702;SDS011;60933;46.398;-63.798;2022-07-23T00:36:27;4.68;;;3.20;;
66702;SDS011;60933;46.398;-63.798;2022-07-23T00:38:53;4.25;;;3.38;;
66702;SDS011;60933;46.398;-63.798;2022-07-23T00:41:20;4.25;;;3.45;;
66702;SDS011;60933;46.398;-63.798;2022-07-23T00:43:46;4.68;;;3.60;;
66702;SDS011;60933;46.398;-63.798;2022-07-23T00:46:12;5.15;;;3.38;;
66702;SDS011;60933;46.398;-63.798;2022-07-23T00:48:38;4.88;;;3.58;;
66702;SDS011;60933;46.398;-63.798;2022-07-23T00:51:04;6.07;;;4.30;;
66702;SDS011;60933;46.398;-63.798;2022-07-23T00:53:30;4.55;;;3.45;;
66702;SDS011;60933;46.398;-63.798;2022-07-23T00:55:57;4.57;;;3.10;;
66702;SDS011;60933;46.398;-63.798;2022-07-23T00:58:24;5.90;;;3.40;;
66702;SDS011;60933;46.398;-63.798;2022-07-23T01:00:50;5.95;;;3.95;;
66702;SDS011;60933;46.398;-63.798;2022-07-23T01:03:16;5.20;;;3.30;;
66702;SDS011;60933;46.398;-63.798;2022-07-23T01:05:42;5.68;;;4.10;;
66702;SDS011;60933;46.398;-63.798;2022-07-23T01:08:09;5.95;;;3.85;;
66702;SDS011;60933;46.398;-63.798;2022-07-23T01:10:39;4.03;;;3.53;;
66702;SDS011;60933;46.398;-63.798;2022-07-23T01:13:07;6.28;;;4.10;;
66702;SDS011;60933;46.398;-63.798;2022-07-23T01:15:39;4.22;;;3.65;;
66702;SDS011;60933;46.398;-63.798;2022-07-23T01:18:20;6.18;;;3.72;;
66702;SDS011;60933;46.398;-63.798;2022-07-23T01:20:51;3.97;;;3.10;;
66702;SDS011;60933;46.398;-63.798;2022-07-23T01:23:24;6.10;;;3.58;;
66702;SDS011;60933;46.398;-63.798;2022-07-23T01:25:53;5.78;;;4.20;;
66702;SDS011;60933;46.398;-63.798;2022-07-23T01:28:24;3.92;;;3.45;;
66702;SDS011;60933;46.398;-63.798;2022-07-23T01:31:02;4.80;;;4.30;;
66702;SDS011;60933;46.398;-63.798;2022-07-23T01:33:37;6.50;;;5.03;;
66702;SDS011;60933;46.398;-63.798;2022-07-23T01:36:03;5.13;;;3.97;;
66702;SDS011;60933;46.398;-63.798;2022-07-23T01:38:43;5.80;;;4.35;;
66702;SDS011;60933;46.398;-63.798;2022-07-23T01:41:12;7.28;;;4.93;;
66702;SDS011;60933;46.398;-63.798;2022-07-23T01:43:44;5.90;;;3.60;;
66702;SDS011;60933;46.398;-63.798;2022-07-23T01:46:30;5.20;;;3.83;;
66702;SDS011;60933;46.398;-63.798;2022-07-23T01:49:17;5.43;;;3.80;;
66702;SDS011;60933;46.398;-63.798;2022-07-23T01:51:42;6.53;;;4.30;;
66702;SDS011;60933;46.398;-63.798;2022-07-23T01:54:28;4.80;;;4.18;;
66702;SDS011;60933;46.398;-63.798;2022-07-23T01:57:00;4.65;;;3.50;;
66702;SDS011;60933;46.398;-63.798;2022-07-23T02:02:45;5.65;;;3.67;;
66702;SDS011;60933;46.398;-63.798;2022-07-23T02:05:11;4.93;;;3.80;;
66702;SDS011;60933;46.398;-63.798;2022-07-23T02:07:37;5.93;;;4.50;;
66702;SDS011;60933;46.398;-63.798;2022-07-23T02:10:03;5.22;;;3.78;;
66702;SDS011;60933;46.398;-63.798;2022-07-23T02:12:29;8.50;;;4.97;;
66702;SDS011;60933;46.398;-63.798;2022-07-23T02:14:55;5.40;;;3.35;;
66702;SDS011;60933;46.398;-63.798;2022-07-23T02:17:21;4.00;;;3.60;;
66702;SDS011;60933;46.398;-63.798;2022-07-23T02:19:47;4.05;;;3.45;;
66702;SDS011;60933;46.398;-63.798;2022-07-23T02:22:13;5.57;;;3.60;;
66702;SDS011;60933;46.398;-63.798;2022-07-23T02:24:39;6.18;;;4.15;;
66702;SDS011;60933;46.398;-63.798;2022-07-23T02:27:06;7.68;;;4.50;;
66702;SDS011;60933;46.398;-63.798;2022-07-23T02:29:32;4.72;;;3.90;;
66702;SDS011;60933;46.398;-63.798;2022-07-23T02:31:58;6.22;;;4.78;;
66702;SDS011;60933;46.398;-63.798;2022-07-23T02:34:24;5.95;;;5.20;;
66702;SDS011;60933;46.398;-63.798;2022-07-23T02:36:50;5.70;;;4.03;;
66702;SDS011;60933;46.398;-63.798;2022-07-23T02:39:16;6.35;;;4.63;;
66702;SDS011;60933;46.398;-63.798;2022-07-23T02:41:42;5.60;;;4.45;;
66702;SDS011;60933;46.398;-63.798;2022-07-23T02:44:08;6.20;;;4.70;;
66702;SDS011;60933;46.398;-63.798;2022-07-23T02:46:34;8.38;;;4.65;;
66702;SDS011;60933;46.398;-63.798;2022-07-23T02:49:00;5.15;;;4.13;;
66702;SDS011;60933;46.398;-63.798;2022-07-23T02:51:26;5.78;;;4.20;;
66702;SDS011;60933;46.398;-63.798;2022-07-23T02:53:52;8.35;;;4.90;;
66702;SDS011;60933;46.398;-63.798;2022-07-23T02:56:18;6.75;;;4.15;;
66702;SDS011;60933;46.398;-63.798;2022-07-23T02:58:44;5.78;;;4.30;;
66702;SDS011;60933;46.398;-63.798;2022-07-23T03:01:10;7.00;;;4.32;;
66702;SDS011;60933;46.398;-63.798;2022-07-23T03:03:36;8.73;;;5.72;;
66702;SDS011;60933;46.398;-63.798;2022-07-23T03:06:02;6.32;;;4.78;;
66702;SDS011;60933;46.398;-63.798;2022-07-23T03:08:29;6.40;;;5.00;;
66702;SDS011;60933;46.398;-63.798;2022-07-23T03:10:55;5.68;;;4.88;;
66702;SDS011;60933;46.398;-63.798;2022-07-23T03:13:21;6.07;;;4.60;;
66702;SDS011;60933;46.398;-63.798;2022-07-23T03:15:47;6.57;;;4.25;;
66702;SDS011;60933;46.398;-63.798;2022-07-23T03:18:13;7.95;;;5.93;;
66702;SDS011;60933;46.398;-63.798;2022-07-23T03:20:39;6.55;;;4.88;;
66702;SDS011;60933;46.398;-63.798;2022-07-23T03:23:05;6.38;;;4.78;;
66702;SDS011;60933;46.398;-63.798;2022-07-23T03:25:31;8.45;;;4.97;;
66702;SDS011;60933;46.398;-63.798;2022-07-23T03:27:57;6.97;;;4.40;;
66702;SDS011;60933;46.398;-63.798;2022-07-23T03:30:23;5.43;;;4.28;;
66702;SDS011;60933;46.398;-63.798;2022-07-23T03:32:49;6.68;;;4.78;;
66702;SDS011;60933;46.398;-63.798;2022-07-23T03:35:15;7.50;;;5.50;;
66702;SDS011;60933;46.398;-63.798;2022-07-23T03:37:42;8.63;;;6.03;;
66702;SDS011;60933;46.398;-63.798;2022-07-23T03:40:08;8.43;;;5.68;;
66702;SDS011;60933;46.398;-63.798;2022-07-23T03:42:34;8.27;;;5.60;;
66702;SDS011;60933;46.398;-63.798;2022-07-23T03:45:02;8.77;;;5.75;;
66702;SDS011;60933;46.398;-63.798;2022-07-23T03:47:29;7.05;;;5.13;;
66702;SDS011;60933;46.398;-63.798;2022-07-23T03:49:55;8.52;;;6.40;;
66702;SDS011;60933;46.398;-63.798;2022-07-23T03:52:21;8.90;;;6.45;;
66702;SDS011;60933;46.398;-63.798;2022-07-23T03:54:47;7.28;;;5.10;;
66702;SDS011;60933;46.398;-63.798;2022-07-23T03:57:13;8.57;;;6.15;;
66702;SDS011;60933;46.398;-63.798;2022-07-23T03:59:40;7.78;;;5.60;;
66702;SDS011;60933;46.398;-63.798;2022-07-23T04:02:06;8.90;;;6.28;;
66702;SDS011;60933;46.398;-63.798;2022-07-23T04:04:32;7.43;;;5.65;;
66702;SDS011;60933;46.398;-63.798;2022-07-23T04:06:58;9.68;;;5.97;;
66702;SDS011;60933;46.398;-63.798;2022-07-23T04:09:24;8.75;;;6.40;;
66702;SDS011;60933;46.398;-63.798;2022-07-23T04:11:50;11.15;;;6.38;;
66702;SDS011;60933;46.398;-63.798;2022-07-23T04:14:16;9.38;;;6.43;;
66702;SDS011;60933;46.398;-63.798;2022-07-23T04:16:42;10.32;;;6.25;;
66702;SDS011;60933;46.398;-63.798;2022-07-23T04:19:08;7.82;;;5.80;;
66702;SDS011;60933;46.398;-63.798;2022-07-23T04:21:34;9.10;;;6.00;;
66702;SDS011;60933;46.398;-63.798;2022-07-23T04:24:00;8.65;;;5.60;;
66702;SDS011;60933;46.398;-63.798;2022-07-23T04:26:27;8.60;;;5.78;;
66702;SDS011;60933;46.398;-63.798;2022-07-23T04:28:53;7.53;;;5.97;;
66702;SDS011;60933;46.398;-63.798;2022-07-23T04:31:19;8.88;;;5.97;;
66702;SDS011;60933;46.398;-63.798;2022-07-23T04:33:45;12.85;;;6.40;;
66702;SDS011;60933;46.398;-63.798;2022-07-23T04:36:11;10.57;;;6.30;;
66702;SDS011;60933;46.398;-63.798;2022-07-23T04:38:37;10.57;;;7.18;;
66702;SDS011;60933;46.398;-63.798;2022-07-23T04:41:03;10.70;;;7.40;;
66702;SDS011;60933;46.398;-63.798;2022-07-23T04:43:29;8.50;;;6.25;;
66702;SDS011;60933;46.398;-63.798;2022-07-23T04:45:56;9.95;;;6.78;;
66702;SDS011;60933;46.398;-63.798;2022-07-23T04:48:22;8.38;;;5.53;;
66702;SDS011;60933;46.398;-63.798;2022-07-23T04:50:48;9.57;;;5.80;;
66702;SDS011;60933;46.398;-63.798;2022-07-23T04:53:14;9.57;;;6.00;;
66702;SDS011;60933;46.398;-63.798;2022-07-23T04:55:40;8.88;;;5.90;;
66702;SDS011;60933;46.398;-63.798;2022-07-23T04:58:06;8.20;;;5.40;;
66702;SDS011;60933;46.398;-63.798;2022-07-23T05:00:32;10.00;;;5.53;;
66702;SDS011;60933;46.398;-63.798;2022-07-23T05:02:58;9.00;;;6.20;;
66702;SDS011;60933;46.398;-63.798;2022-07-23T05:05:25;9.43;;;6.18;;
66702;SDS011;60933;46.398;-63.798;2022-07-23T05:07:51;11.38;;;6.32;;
66702;SDS011;60933;46.398;-63.798;2022-07-23T05:10:17;9.43;;;6.78;;
66702;SDS011;60933;46.398;-63.798;2022-07-23T05:12:43;7.95;;;5.78;;
66702;SDS011;60933;46.398;-63.798;2022-07-23T05:15:09;10.60;;;6.32;;
66702;SDS011;60933;46.398;-63.798;2022-07-23T05:17:35;7.18;;;5.68;;
66702;SDS011;60933;46.398;-63.798;2022-07-23T05:20:01;8.05;;;5.95;;
66702;SDS011;60933;46.398;-63.798;2022-07-23T05:22:28;9.48;;;5.95;;
66702;SDS011;60933;46.398;-63.798;2022-07-23T05:24:54;11.07;;;6.50;;
66702;SDS011;60933;46.398;-63.798;2022-07-23T05:27:20;8.25;;;5.97;;
66702;SDS011;60933;46.398;-63.798;2022-07-23T05:29:46;9.48;;;5.70;;
66702;SDS011;60933;46.398;-63.798;2022-07-23T05:32:12;8.82;;;6.25;;
66702;SDS011;60933;46.398;-63.798;2022-07-23T05:34:38;8.55;;;5.82;;
66702;SDS011;60933;46.398;-63.798;2022-07-23T05:37:05;7.90;;;6.07;;
66702;SDS011;60933;46.398;-63.798;2022-07-23T05:39:31;10.15;;;6.25;;
66702;SDS011;60933;46.398;-63.798;2022-07-23T05:41:57;8.13;;;6.82;;
66702;SDS011;60933;46.398;-63.798;2022-07-23T05:44:23;7.88;;;6.63;;
66702;SDS011;60933;46.398;-63.798;2022-07-23T05:46:49;8.57;;;6.40;;
66702;SDS011;60933;46.398;-63.798;2022-07-23T05:49:15;9.30;;;6.43;;
66702;SDS011;60933;46.398;-63.798;2022-07-23T05:51:41;8.95;;;6.72;;
66702;SDS011;60933;46.398;-63.798;2022-07-23T05:54:07;8.85;;;5.75;;
66702;SDS011;60933;46.398;-63.798;2022-07-23T05:56:34;8.27;;;6.13;;
66702;SDS011;60933;46.398;-63.798;2022-07-23T05:59:00;8.52;;;5.80;;
66702;SDS011;60933;46.398;-63.798;2022-07-23T06:01:26;7.57;;;5.45;;
66702;SDS011;60933;46.398;-63.798;2022-07-23T06:03:52;8.35;;;5.43;;
66702;SDS011;60933;46.398;-63.798;2022-07-23T06:06:18;7.18;;;5.40;;
66702;SDS011;60933;46.398;-63.798;2022-07-23T06:08:44;9.25;;;5.68;;
66702;SDS011;60933;46.398;-63.798;2022-07-23T06:15:23;9.00;;;5.82;;
66702;SDS011;60933;46.398;-63.798;2022-07-23T06:21:53;8.38;;;5.63;;
66702;SDS011;60933;46.398;-63.798;2022-07-23T06:24:29;7.25;;;5.43;;
66702;SDS011;60933;46.398;-63.798;2022-07-23T06:26:56;6.97;;;5.10;;
66702;SDS011;60933;46.398;-63.798;2022-07-23T06:29:38;8.18;;;5.22;;
66702;SDS011;60933;46.398;-63.798;2022-07-23T06:32:19;6.53;;;4.82;;
66702;SDS011;60933;46.398;-63.798;2022-07-23T06:34:48;7.55;;;5.13;;
66702;SDS011;60933;46.398;-63.798;2022-07-23T06:37:15;7.85;;;5.15;;
66702;SDS011;60933;46.398;-63.798;2022-07-23T06:39:41;8.68;;;5.30;;
66702;SDS011;60933;46.398;-63.798;2022-07-23T06:42:07;9.82;;;6.90;;
66702;SDS011;60933;46.398;-63.798;2022-07-23T06:44:33;8.88;;;6.47;;
66702;SDS011;60933;46.398;-63.798;2022-07-23T06:46:59;7.50;;;5.15;;
66702;SDS011;60933;46.398;-63.798;2022-07-23T06:49:25;8.77;;;5.45;;
66702;SDS011;60933;46.398;-63.798;2022-07-23T06:51:51;7.28;;;5.10;;
66702;SDS011;60933;46.398;-63.798;2022-07-23T06:54:17;6.80;;;5.07;;
66702;SDS011;60933;46.398;-63.798;2022-07-23T06:56:43;8.32;;;5.53;;
66702;SDS011;60933;46.398;-63.798;2022-07-23T06:59:10;8.95;;;5.50;;
66702;SDS011;60933;46.398;-63.798;2022-07-23T07:01:36;8.98;;;5.65;;
66702;SDS011;60933;46.398;-63.798;2022-07-23T07:04:02;7.97;;;6.07;;
66702;SDS011;60933;46.398;-63.798;2022-07-23T07:06:28;7.90;;;5.22;;
66702;SDS011;60933;46.398;-63.798;2022-07-23T07:08:54;7.57;;;5.65;;
66702;SDS011;60933;46.398;-63.798;2022-07-23T07:11:21;9.65;;;5.20;;
66702;SDS011;60933;46.398;-63.798;2022-07-23T07:13:49;10.23;;;5.53;;
66702;SDS011;60933;46.398;-63.798;2022-07-23T07:16:15;7.78;;;5.65;;
66702;SDS011;60933;46.398;-63.798;2022-07-23T07:18:41;8.35;;;6.00;;
66702;SDS011;60933;46.398;-63.798;2022-07-23T07:21:07;8.27;;;5.32;;
66702;SDS011;60933;46.398;-63.798;2022-07-23T07:23:33;10.25;;;6.50;;
66702;SDS011;60933;46.398;-63.798;2022-07-23T07:25:59;9.30;;;5.97;;
66702;SDS011;60933;46.398;-63.798;2022-07-23T07:28:25;7.25;;;5.55;;
66702;SDS011;60933;46.398;-63.798;2022-07-23T07:30:52;9.55;;;6.70;;
66702;SDS011;60933;46.398;-63.798;2022-07-23T07:33:18;7.75;;;5.47;;
66702;SDS011;60933;46.398;-63.798;2022-07-23T07:35:44;8.73;;;5.95;;
66702;SDS011;60933;46.398;-63.798;2022-07-23T07:38:10;7.45;;;5.43;;
66702;SDS011;60933;46.398;-63.798;2022-07-23T07:40:36;6.45;;;5.10;;
66702;SDS011;60933;46.398;-63.798;2022-07-23T07:43:02;6.55;;;5.03;;
66702;SDS011;60933;46.398;-63.798;2022-07-23T07:45:28;7.80;;;4.95;;
66702;SDS011;60933;46.398;-63.798;2022-07-23T07:47:54;8.60;;;5.68;;
66702;SDS011;60933;46.398;-63.798;2022-07-23T07:50:21;7.50;;;5.28;;
66702;SDS011;60933;46.398;-63.798;2022-07-23T07:52:47;10.20;;;5.55;;
66702;SDS011;60933;46.398;-63.798;2022-07-23T07:55:13;6.85;;;5.25;;
66702;SDS011;60933;46.398;-63.798;2022-07-23T07:57:40;7.40;;;4.80;;
66702;SDS011;60933;46.398;-63.798;2022-07-23T08:00:07;6.65;;;4.28;;
66702;SDS011;60933;46.398;-63.798;2022-07-23T08:02:44;6.88;;;5.18;;
66702;SDS011;60933;46.398;-63.798;2022-07-23T08:05:10;7.32;;;5.82;;
66702;SDS011;60933;46.398;-63.798;2022-07-23T08:07:37;7.05;;;5.20;;
66702;SDS011;60933;46.398;-63.798;2022-07-23T08:10:06;6.97;;;5.40;;
66702;SDS011;60933;46.398;-63.798;2022-07-23T08:12:48;8.70;;;6.00;;
66702;SDS011;60933;46.398;-63.798;2022-07-23T08:15:16;8.07;;;4.95;;
66702;SDS011;60933;46.398;-63.798;2022-07-23T08:17:44;6.72;;;4.90;;
66702;SDS011;60933;46.398;-63.798;2022-07-23T08:20:12;7.13;;;5.07;;
66702;SDS011;60933;46.398;-63.798;2022-07-23T08:25:19;6.85;;;5.10;;
66702;SDS011;60933;46.398;-63.798;2022-07-23T08:27:46;8.13;;;5.75;;
66702;SDS011;60933;46.398;-63.798;2022-07-23T08:30:14;5.70;;;4.32;;
66702;SDS011;60933;46.398;-63.798;2022-07-23T08:32:51;6.38;;;4.65;;
66702;SDS011;60933;46.398;-63.798;2022-07-23T08:35:22;6.38;;;4.90;;
66702;SDS011;60933;46.398;-63.798;2022-07-23T08:37:50;6.35;;;5.22;;
66702;SDS011;60933;46.398;-63.798;2022-07-23T08:40:26;7.18;;;5.30;;
66702;SDS011;60933;46.398;-63.798;2022-07-23T08:42:55;7.32;;;5.10;;
66702;SDS011;60933;46.398;-63.798;2022-07-23T08:45:23;7.63;;;5.05;;
66702;SDS011;60933;46.398;-63.798;2022-07-23T08:47:52;5.22;;;4.15;;
66702;SDS011;60933;46.398;-63.798;2022-07-23T08:50:30;4.32;;;3.42;;
66702;SDS011;60933;46.398;-63.798;2022-07-23T08:52:57;4.05;;;3.25;;
66702;SDS011;60933;46.398;-63.798;2022-07-23T08:55:25;4.22;;;3.53;;
66702;SDS011;60933;46.398;-63.798;2022-07-23T08:58:08;5.85;;;4.13;;
66702;SDS011;60933;46.398;-63.798;2022-07-23T09:00:43;5.20;;;4.38;;
66702;SDS011;60933;46.398;-63.798;2022-07-23T09:03:16;7.18;;;4.85;;
66702;SDS011;60933;46.398;-63.798;2022-07-23T09:05:49;6.43;;;4.28;;
66702;SDS011;60933;46.398;-63.798;2022-07-23T09:08:17;4.75;;;3.65;;
66702;SDS011;60933;46.398;-63.798;2022-07-23T09:12:02;4.03;;;3.20;;
66702;SDS011;60933;46.398;-63.798;2022-07-23T09:15:12;6.30;;;4.68;;
66702;SDS011;60933;46.398;-63.798;2022-07-23T09:17:42;4.93;;;4.03;;
66702;SDS011;60933;46.398;-63.798;2022-07-23T09:20:21;5.00;;;3.85;;
66702;SDS011;60933;46.398;-63.798;2022-07-23T09:22:47;5.65;;;3.65;;
66702;SDS011;60933;46.398;-63.798;2022-07-23T09:25:15;6.43;;;4.03;;
66702;SDS011;60933;46.398;-63.798;2022-07-23T09:30:47;6.20;;;4.80;;
66702;SDS011;60933;46.398;-63.798;2022-07-23T09:33:16;4.95;;;3.78;;
66702;SDS011;60933;46.398;-63.798;2022-07-23T09:35:53;6.82;;;4.40;;
66702;SDS011;60933;46.398;-63.798;2022-07-23T09:38:50;4.50;;;3.78;;
66702;SDS011;60933;46.398;-63.798;2022-07-23T09:41:22;7.30;;;4.63;;
66702;SDS011;60933;46.398;-63.798;2022-07-23T09:43:54;7.30;;;5.22;;
66702;SDS011;60933;46.398;-63.798;2022-07-23T09:46:46;5.72;;;4.57;;
66702;SDS011;60933;46.398;-63.798;2022-07-23T09:52:59;6.35;;;4.68;;
66702;SDS011;60933;46.398;-63.798;2022-07-23T09:55:31;6.70;;;4.80;;
66702;SDS011;60933;46.398;-63.798;2022-07-23T09:58:21;6.80;;;4.40;;
66702;SDS011;60933;46.398;-63.798;2022-07-23T10:01:32;7.47;;;5.10;;
66702;SDS011;60933;46.398;-63.798;2022-07-23T10:06:53;7.50;;;5.45;;
66702;SDS011;60933;46.398;-63.798;2022-07-23T10:09:36;8.43;;;5.25;;
66702;SDS011;60933;46.398;-63.798;2022-07-23T10:18:34;7.60;;;5.00;;
66702;SDS011;60933;46.398;-63.798;2022-07-23T10:21:30;7.68;;;5.05;;
66702;SDS011;60933;46.398;-63.798;2022-07-23T10:24:28;8.38;;;4.80;;
66702;SDS011;60933;46.398;-63.798;2022-07-23T10:30:39;8.25;;;4.70;;
66702;SDS011;60933;46.398;-63.798;2022-07-23T10:37:18;7.38;;;4.35;;
66702;SDS011;60933;46.398;-63.798;2022-07-23T10:42:46;8.93;;;4.93;;
66702;SDS011;60933;46.398;-63.798;2022-07-23T10:45:23;7.55;;;4.88;;
66702;SDS011;60933;46.398;-63.798;2022-07-23T10:48:15;6.35;;;4.72;;
66702;SDS011;60933;46.398;-63.798;2022-07-23T10:50:44;7.97;;;4.70;;
66702;SDS011;60933;46.398;-63.798;2022-07-23T11:03:00;7.07;;;5.25;;
66702;SDS011;60933;46.398;-63.798;2022-07-23T11:05:52;6.03;;;4.70;;
66702;SDS011;60933;46.398;-63.798;2022-07-23T11:08:22;9.27;;;5.40;;
66702;SDS011;60933;46.398;-63.798;2022-07-23T11:13:28;8.77;;;4.80;;
66702;SDS011;60933;46.398;-63.798;2022-07-23T11:16:13;7.57;;;5.47;;
66702;SDS011;60933;46.398;-63.798;2022-07-23T11:18:58;8.30;;;5.70;;
66702;SDS011;60933;46.398;-63.798;2022-07-23T11:24:21;7.03;;;5.13;;
66702;SDS011;60933;46.398;-63.798;2022-07-23T11:32:07;7.75;;;5.20;;
66702;SDS011;60933;46.398;-63.798;2022-07-23T11:34:43;8.48;;;5.40;;
66702;SDS011;60933;46.398;-63.798;2022-07-23T11:40:07;7.90;;;6.00;;
66702;SDS011;60933;46.398;-63.798;2022-07-23T11:42:54;11.23;;;6.88;;
66702;SDS011;60933;46.398;-63.798;2022-07-23T11:48:20;6.68;;;5.85;;
66702;SDS011;60933;46.398;-63.798;2022-07-23T11:50:49;7.47;;;5.05;;
66702;SDS011;60933;46.398;-63.798;2022-07-23T11:53:28;9.98;;;5.95;;
66702;SDS011;60933;46.398;-63.798;2022-07-23T11:56:06;8.23;;;5.93;;
66702;SDS011;60933;46.398;-63.798;2022-07-23T11:58:35;10.20;;;5.60;;
66702;SDS011;60933;46.398;-63.798;2022-07-23T12:01:03;12.05;;;6.63;;
66702;SDS011;60933;46.398;-63.798;2022-07-23T12:03:29;8.73;;;5.65;;
66702;SDS011;60933;46.398;-63.798;2022-07-23T12:05:56;7.90;;;6.53;;
66702;SDS011;60933;46.398;-63.798;2022-07-23T12:08:24;7.68;;;5.80;;
66702;SDS011;60933;46.398;-63.798;2022-07-23T12:10:50;9.77;;;6.05;;
66702;SDS011;60933;46.398;-63.798;2022-07-23T12:16:12;10.15;;;6.20;;
66702;SDS011;60933;46.398;-63.798;2022-07-23T12:18:44;9.55;;;6.60;;
66702;SDS011;60933;46.398;-63.798;2022-07-23T12:21:11;9.80;;;6.93;;
66702;SDS011;60933;46.398;-63.798;2022-07-23T12:23:48;8.95;;;6.10;;
66702;SDS011;60933;46.398;-63.798;2022-07-23T12:26:23;7.68;;;5.45;;
66702;SDS011;60933;46.398;-63.798;2022-07-23T12:29:02;8.35;;;5.93;;
66702;SDS011;60933;46.398;-63.798;2022-07-23T12:31:49;9.13;;;5.60;;
66702;SDS011;60933;46.398;-63.798;2022-07-23T12:34:34;14.18;;;6.57;;
66702;SDS011;60933;46.398;-63.798;2022-07-23T12:37:01;8.90;;;5.63;;
66702;SDS011;60933;46.398;-63.798;2022-07-23T12:39:32;7.80;;;5.72;;
66702;SDS011;60933;46.398;-63.798;2022-07-23T12:42:11;11.82;;;6.15;;
66702;SDS011;60933;46.398;-63.798;2022-07-23T12:47:58;10.48;;;6.68;;
66702;SDS011;60933;46.398;-63.798;2022-07-23T12:50:44;8.50;;;5.90;;
66702;SDS011;60933;46.398;-63.798;2022-07-23T12:53:17;7.75;;;6.28;;
66702;SDS011;60933;46.398;-63.798;2022-07-23T12:55:46;8.30;;;6.53;;
66702;SDS011;60933;46.398;-63.798;2022-07-23T12:58:17;11.65;;;7.22;;
66702;SDS011;60933;46.398;-63.798;2022-07-23T13:03:20;8.63;;;6.07;;
66702;SDS011;60933;46.398;-63.798;2022-07-23T13:05:48;9.60;;;6.53;;
66702;SDS011;60933;46.398;-63.798;2022-07-23T13:08:14;9.82;;;6.68;;
66702;SDS011;60933;46.398;-63.798;2022-07-23T13:10:41;9.43;;;6.97;;
66702;SDS011;60933;46.398;-63.798;2022-07-23T13:13:10;8.05;;;6.13;;
66702;SDS011;60933;46.398;-63.798;2022-07-23T13:15:36;8.40;;;6.30;;
66702;SDS011;60933;46.398;-63.798;2022-07-23T13:18:02;8.13;;;7.03;;
66702;SDS011;60933;46.398;-63.798;2022-07-23T13:20:28;9.88;;;6.22;;
66702;SDS011;60933;46.398;-63.798;2022-07-23T13:22:56;7.68;;;6.07;;
66702;SDS011;60933;46.398;-63.798;2022-07-23T13:25:22;8.63;;;6.43;;
66702;SDS011;60933;46.398;-63.798;2022-07-23T13:27:48;8.38;;;6.40;;
66702;SDS011;60933;46.398;-63.798;2022-07-23T13:30:15;8.77;;;6.20;;
66702;SDS011;60933;46.398;-63.798;2022-07-23T13:32:41;8.50;;;6.22;;
66702;SDS011;60933;46.398;-63.798;2022-07-23T13:35:08;8.07;;;6.40;;
66702;SDS011;60933;46.398;-63.798;2022-07-23T13:37:34;8.52;;;6.28;;
66702;SDS011;60933;46.398;-63.798;2022-07-23T13:40:01;7.57;;;6.10;;
66702;SDS011;60933;46.398;-63.798;2022-07-23T13:42:28;8.73;;;6.70;;
66702;SDS011;60933;46.398;-63.798;2022-07-23T13:44:54;7.45;;;6.22;;
66702;SDS011;60933;46.398;-63.798;2022-07-23T13:47:20;8.88;;;6.03;;
66702;SDS011;60933;46.398;-63.798;2022-07-23T13:49:46;8.68;;;6.32;;
66702;SDS011;60933;46.398;-63.798;2022-07-23T13:52:12;8.43;;;6.13;;
66702;SDS011;60933;46.398;-63.798;2022-07-23T13:54:38;8.30;;;6.75;;
66702;SDS011;60933;46.398;-63.798;2022-07-23T13:57:04;8.60;;;5.82;;
66702;SDS011;60933;46.398;-63.798;2022-07-23T13:59:30;9.07;;;7.22;;
66702;SDS011;60933;46.398;-63.798;2022-07-23T14:01:56;9.70;;;6.50;;
66702;SDS011;60933;46.398;-63.798;2022-07-23T14:04:23;8.02;;;6.28;;
66702;SDS011;60933;46.398;-63.798;2022-07-23T14:06:49;7.72;;;5.85;;
66702;SDS011;60933;46.398;-63.798;2022-07-23T14:09:15;9.90;;;7.40;;
66702;SDS011;60933;46.398;-63.798;2022-07-23T14:11:41;9.80;;;7.15;;
66702;SDS011;60933;46.398;-63.798;2022-07-23T14:14:07;9.23;;;6.53;;
66702;SDS011;60933;46.398;-63.798;2022-07-23T14:16:33;7.15;;;6.18;;
66702;SDS011;60933;46.398;-63.798;2022-07-23T14:18:59;9.38;;;6.60;;
66702;SDS011;60933;46.398;-63.798;2022-07-23T14:21:25;7.63;;;6.35;;
66702;SDS011;60933;46.398;-63.798;2022-07-23T14:23:51;7.82;;;6.00;;
66702;SDS011;60933;46.398;-63.798;2022-07-23T14:26:18;8.38;;;6.43;;
66702;SDS011;60933;46.398;-63.798;2022-07-23T14:28:44;8.90;;;7.15;;
66702;SDS011;60933;46.398;-63.798;2022-07-23T14:31:10;8.13;;;6.63;;
66702;SDS011;60933;46.398;-63.798;2022-07-23T14:33:36;8.93;;;5.97;;
66702;SDS011;60933;46.398;-63.798;2022-07-23T14:36:02;9.23;;;6.82;;
66702;SDS011;60933;46.398;-63.798;2022-07-23T14:38:29;7.65;;;6.80;;
66702;SDS011;60933;46.398;-63.798;2022-07-23T14:40:56;8.35;;;6.18;;
66702;SDS011;60933;46.398;-63.798;2022-07-23T14:43:22;8.13;;;7.28;;
66702;SDS011;60933;46.398;-63.798;2022-07-23T14:45:52;8.60;;;7.20;;
66702;SDS011;60933;46.398;-63.798;2022-07-23T14:48:18;9.10;;;6.65;;
66702;SDS011;60933;46.398;-63.798;2022-07-23T14:50:44;10.20;;;7.20;;
66702;SDS011;60933;46.398;-63.798;2022-07-23T14:56:22;10.38;;;6.47;;
66702;SDS011;60933;46.398;-63.798;2022-07-23T14:58:48;9.00;;;6.82;;
66702;SDS011;60933;46.398;-63.798;2022-07-23T15:01:14;7.60;;;6.57;;
66702;SDS011;60933;46.398;-63.798;2022-07-23T15:03:40;7.70;;;6.65;;
66702;SDS011;60933;46.398;-63.798;2022-07-23T15:06:07;9.73;;;7.07;;
66702;SDS011;60933;46.398;-63.798;2022-07-23T15:08:33;7.68;;;6.53;;
66702;SDS011;60933;46.398;-63.798;2022-07-23T15:10:59;9.00;;;6.53;;
66702;SDS011;60933;46.398;-63.798;2022-07-23T15:13:25;8.38;;;7.45;;
66702;SDS011;60933;46.398;-63.798;2022-07-23T15:15:58;7.57;;;6.78;;
66702;SDS011;60933;46.398;-63.798;2022-07-23T15:28:53;9.27;;;6.75;;
66702;SDS011;60933;46.398;-63.798;2022-07-23T15:31:24;8.35;;;7.43;;
66702;SDS011;60933;46.398;-63.798;2022-07-23T15:37:26;10.10;;;8.45;;
66702;SDS011;60933;46.398;-63.798;2022-07-23T15:39:52;8.52;;;7.28;;
66702;SDS011;60933;46.398;-63.798;2022-07-23T15:44:53;9.98;;;7.03;;
66702;SDS011;60933;46.398;-63.798;2022-07-23T15:47:22;10.23;;;7.47;;
66702;SDS011;60933;46.398;-63.798;2022-07-23T15:49:48;8.38;;;6.72;;
66702;SDS011;60933;46.398;-63.798;2022-07-23T15:52:15;7.95;;;7.10;;
66702;SDS011;60933;46.398;-63.798;2022-07-23T15:54:45;9.15;;;8.32;;
66702;SDS011;60933;46.398;-63.798;2022-07-23T15:57:11;10.20;;;7.85;;
66702;SDS011;60933;46.398;-63.798;2022-07-23T15:59:38;9.18;;;7.00;;
66702;SDS011;60933;46.398;-63.798;2022-07-23T16:02:04;8.23;;;7.32;;
66702;SDS011;60933;46.398;-63.798;2022-07-23T16:04:36;9.10;;;7.85;;
66702;SDS011;60933;46.398;-63.798;2022-07-23T16:07:02;7.45;;;6.72;;
66702;SDS011;60933;46.398;-63.798;2022-07-23T16:09:49;9.30;;;8.02;;